sensor_id;sensor_type;location;lat;lon;timestamp;P1;durP1;ratioP1;P2;durP2;ratioP2
58512;SDS011;44302;47.914;10.642;2022-12-07T09:42:34;16.90;;;10.07;;
58512;SDS011;44302;47.914;10.642;2022-12-07T10:01:50;12.93;;;9.03;;
58512;SDS011;44302;47.914;10.642;2022-12-07T10:05:55;22.70;;;11.00;;
58512;SDS011;44302;47.914;10.642;2022-12-07T10:09:47;19.10;;;10.30;;
58512;SDS011;44302;47.914;10.642;2022-12-07T10:13:52;16.17;;;10.60;;
58512;SDS011;44302;47.914;10.642;2022-12-07T10:17:53;15.73;;;10.37;;
58512;SDS011;44302;47.914;10.642;2022-12-07T10:22:12;17.57;;;11.10;;
58512;SDS011;44302;47.914;10.642;2022-12-07T10:25:51;13.67;;;9.43;;
58512;SDS011;44302;47.914;10.642;2022-12-07T10:29:54;14.67;;;9.83;;
58512;SDS011;44302;47.914;10.642;2022-12-07T10:33:56;15.77;;;10.00;;
58512;SDS011;44302;47.914;10.642;2022-12-07T10:38:35;13.60;;;9.13;;
58512;SDS011;44302;47.914;10.642;2022-12-07T10:41:14;12.13;;;8.70;;
58512;SDS011;44302;47.914;10.642;2022-12-07T10:43:59;16.27;;;10.53;;
58512;SDS011;44302;47.914;10.642;2022-12-07T10:46:40;19.20;;;12.97;;
58512;SDS011;44302;47.914;10.642;2022-12-07T10:51:58;14.00;;;10.00;;
58512;SDS011;44302;47.914;10.642;2022-12-07T11:00:29;15.03;;;10.33;;
58512;SDS011;44302;47.914;10.642;2022-12-07T11:05:53;14.10;;;10.00;;
58512;SDS011;44302;47.914;10.642;2022-12-07T11:11:07;15.27;;;11.90;;
58512;SDS011;44302;47.914;10.642;2022-12-07T11:24:50;18.97;;;13.43;;
58512;SDS011;44302;47.914;10.642;2022-12-07T11:38:08;15.50;;;12.23;;
58512;SDS011;44302;47.914;10.642;2022-12-07T11:40:40;14.33;;;11.00;;
58512;SDS011;44302;47.914;10.642;2022-12-07T11:45:59;12.67;;;9.30;;
58512;SDS011;44302;47.914;10.642;2022-12-07T11:48:45;10.73;;;9.10;;
58512;SDS011;44302;47.914;10.642;2022-12-07T11:51:16;13.40;;;10.33;;
58512;SDS011;44302;47.914;10.642;2022-12-07T11:56:19;10.73;;;8.20;;
58512;SDS011;44302;47.914;10.642;2022-12-07T12:05:02;32.70;;;18.17;;
58512;SDS011;44302;47.914;10.642;2022-12-07T12:06:59;10.70;;;8.30;;
58512;SDS011;44302;47.914;10.642;2022-12-07T12:09:33;9.30;;;7.60;;
58512;SDS011;44302;47.914;10.642;2022-12-07T12:23:00;14.20;;;8.63;;
58512;SDS011;44302;47.914;10.642;2022-12-07T12:25:36;7.57;;;5.83;;
58512;SDS011;44302;47.914;10.642;2022-12-07T12:28:10;10.47;;;8.13;;
58512;SDS011;44302;47.914;10.642;2022-12-07T12:33:32;52.83;;;33.43;;
58512;SDS011;44302;47.914;10.642;2022-12-07T12:36:45;38.77;;;23.60;;
58512;SDS011;44302;47.914;10.642;2022-12-07T12:46:48;18.80;;;12.57;;
58512;SDS011;44302;47.914;10.642;2022-12-07T12:51:48;11.30;;;8.87;;
58512;SDS011;44302;47.914;10.642;2022-12-07T12:56:48;25.93;;;16.90;;
58512;SDS011;44302;47.914;10.642;2022-12-07T12:59:41;18.57;;;11.83;;
58512;SDS011;44302;47.914;10.642;2022-12-07T13:02:23;27.70;;;17.00;;
58512;SDS011;44302;47.914;10.642;2022-12-07T13:10:53;7.43;;;6.50;;
58512;SDS011;44302;47.914;10.642;2022-12-07T13:15:41;14.37;;;9.87;;
58512;SDS011;44302;47.914;10.642;2022-12-07T13:23:12;67.03;;;35.93;;
58512;SDS011;44302;47.914;10.642;2022-12-07T13:25:44;19.33;;;12.67;;
58512;SDS011;44302;47.914;10.642;2022-12-07T13:28:19;12.17;;;8.63;;
58512;SDS011;44302;47.914;10.642;2022-12-07T13:33:23;20.57;;;15.30;;
58512;SDS011;44302;47.914;10.642;2022-12-07T13:35:55;32.90;;;23.90;;
58512;SDS011;44302;47.914;10.642;2022-12-07T13:46:22;12.80;;;9.03;;
58512;SDS011;44302;47.914;10.642;2022-12-07T13:48:55;12.83;;;8.63;;
58512;SDS011;44302;47.914;10.642;2022-12-07T13:51:23;12.30;;;8.37;;
58512;SDS011;44302;47.914;10.642;2022-12-07T13:53:52;10.83;;;8.00;;
58512;SDS011;44302;47.914;10.642;2022-12-07T13:56:21;18.37;;;11.40;;
58512;SDS011;44302;47.914;10.642;2022-12-07T13:58:51;31.50;;;18.90;;
58512;SDS011;44302;47.914;10.642;2022-12-07T14:01:17;13.90;;;8.70;;
58512;SDS011;44302;47.914;10.642;2022-12-07T14:03:43;9.77;;;7.17;;
58512;SDS011;44302;47.914;10.642;2022-12-07T14:08:50;8.00;;;6.60;;
58512;SDS011;44302;47.914;10.642;2022-12-07T14:11:30;7.70;;;6.90;;
58512;SDS011;44302;47.914;10.642;2022-12-07T14:13:58;9.67;;;7.00;;
58512;SDS011;44302;47.914;10.642;2022-12-07T14:16:31;8.63;;;6.90;;
58512;SDS011;44302;47.914;10.642;2022-12-07T14:19:00;10.03;;;7.40;;
58512;SDS011;44302;47.914;10.642;2022-12-07T14:21:31;9.10;;;7.37;;
58512;SDS011;44302;47.914;10.642;2022-12-07T14:24:12;8.83;;;7.60;;
58512;SDS011;44302;47.914;10.642;2022-12-07T14:26:42;13.80;;;8.87;;
58512;SDS011;44302;47.914;10.642;2022-12-07T14:29:27;9.40;;;7.40;;
58512;SDS011;44302;47.914;10.642;2022-12-07T14:31:54;13.10;;;8.33;;
58512;SDS011;44302;47.914;10.642;2022-12-07T14:34:21;11.43;;;8.00;;
58512;SDS011;44302;47.914;10.642;2022-12-07T14:36:47;10.73;;;8.30;;
58512;SDS011;44302;47.914;10.642;2022-12-07T14:39:13;16.13;;;10.10;;
58512;SDS011;44302;47.914;10.642;2022-12-07T14:41:39;10.93;;;8.17;;
58512;SDS011;44302;47.914;10.642;2022-12-07T14:44:17;12.97;;;9.83;;
58512;SDS011;44302;47.914;10.642;2022-12-07T14:46:48;13.87;;;8.97;;
58512;SDS011;44302;47.914;10.642;2022-12-07T14:49:14;12.37;;;8.50;;
58512;SDS011;44302;47.914;10.642;2022-12-07T14:51:41;11.83;;;9.57;;
58512;SDS011;44302;47.914;10.642;2022-12-07T14:54:19;19.47;;;9.37;;
58512;SDS011;44302;47.914;10.642;2022-12-07T14:56:46;12.90;;;9.73;;
58512;SDS011;44302;47.914;10.642;2022-12-07T14:59:16;15.83;;;9.20;;
58512;SDS011;44302;47.914;10.642;2022-12-07T15:01:42;13.33;;;9.00;;
58512;SDS011;44302;47.914;10.642;2022-12-07T15:04:08;12.87;;;9.63;;
58512;SDS011;44302;47.914;10.642;2022-12-07T15:06:33;16.37;;;8.90;;
58512;SDS011;44302;47.914;10.642;2022-12-07T15:08:59;15.90;;;9.03;;
58512;SDS011;44302;47.914;10.642;2022-12-07T15:11:25;14.10;;;9.83;;
58512;SDS011;44302;47.914;10.642;2022-12-07T15:13:51;10.83;;;9.00;;
58512;SDS011;44302;47.914;10.642;2022-12-07T15:16:36;12.90;;;9.30;;
58512;SDS011;44302;47.914;10.642;2022-12-07T15:19:05;20.80;;;10.40;;
58512;SDS011;44302;47.914;10.642;2022-12-07T15:21:31;37.90;;;21.60;;
58512;SDS011;44302;47.914;10.642;2022-12-07T15:23:57;20.40;;;13.53;;
58512;SDS011;44302;47.914;10.642;2022-12-07T15:26:22;27.83;;;15.67;;
58512;SDS011;44302;47.914;10.642;2022-12-07T15:28:48;16.93;;;11.60;;
58512;SDS011;44302;47.914;10.642;2022-12-07T15:31:14;18.93;;;12.03;;
58512;SDS011;44302;47.914;10.642;2022-12-07T15:33:42;13.67;;;11.47;;
58512;SDS011;44302;47.914;10.642;2022-12-07T15:36:08;18.93;;;14.57;;
58512;SDS011;44302;47.914;10.642;2022-12-07T15:38:48;20.43;;;14.60;;
58512;SDS011;44302;47.914;10.642;2022-12-07T15:41:14;18.60;;;13.03;;
58512;SDS011;44302;47.914;10.642;2022-12-07T15:43:40;21.17;;;13.93;;
58512;SDS011;44302;47.914;10.642;2022-12-07T15:46:31;28.63;;;19.33;;
58512;SDS011;44302;47.914;10.642;2022-12-07T15:48:59;23.70;;;17.17;;
58512;SDS011;44302;47.914;10.642;2022-12-07T15:51:25;23.40;;;13.83;;
58512;SDS011;44302;47.914;10.642;2022-12-07T15:53:51;20.27;;;14.60;;
58512;SDS011;44302;47.914;10.642;2022-12-07T15:56:17;34.20;;;20.80;;
58512;SDS011;44302;47.914;10.642;2022-12-07T15:58:43;36.27;;;21.80;;
58512;SDS011;44302;47.914;10.642;2022-12-07T16:01:12;25.57;;;17.53;;
58512;SDS011;44302;47.914;10.642;2022-12-07T16:03:39;19.03;;;14.37;;
58512;SDS011;44302;47.914;10.642;2022-12-07T16:06:04;19.20;;;14.03;;
58512;SDS011;44302;47.914;10.642;2022-12-07T16:08:30;21.80;;;16.43;;
58512;SDS011;44302;47.914;10.642;2022-12-07T16:10:56;19.43;;;15.53;;
58512;SDS011;44302;47.914;10.642;2022-12-07T16:13:21;19.03;;;14.13;;
58512;SDS011;44302;47.914;10.642;2022-12-07T16:15:47;16.40;;;11.97;;
58512;SDS011;44302;47.914;10.642;2022-12-07T16:18:13;15.47;;;11.93;;
58512;SDS011;44302;47.914;10.642;2022-12-07T16:20:39;20.37;;;15.07;;
58512;SDS011;44302;47.914;10.642;2022-12-07T16:23:05;26.43;;;17.03;;
58512;SDS011;44302;47.914;10.642;2022-12-07T16:25:30;29.60;;;18.13;;
58512;SDS011;44302;47.914;10.642;2022-12-07T16:27:56;23.73;;;16.97;;
58512;SDS011;44302;47.914;10.642;2022-12-07T16:30:22;25.50;;;18.17;;
58512;SDS011;44302;47.914;10.642;2022-12-07T16:32:47;21.23;;;13.83;;
58512;SDS011;44302;47.914;10.642;2022-12-07T16:35:13;28.37;;;17.93;;
58512;SDS011;44302;47.914;10.642;2022-12-07T16:37:41;22.00;;;14.53;;
58512;SDS011;44302;47.914;10.642;2022-12-07T16:40:07;23.77;;;15.33;;
58512;SDS011;44302;47.914;10.642;2022-12-07T16:42:33;20.70;;;15.80;;
58512;SDS011;44302;47.914;10.642;2022-12-07T16:45:00;27.03;;;18.50;;
58512;SDS011;44302;47.914;10.642;2022-12-07T16:47:26;26.93;;;19.10;;
58512;SDS011;44302;47.914;10.642;2022-12-07T16:49:52;22.63;;;15.93;;
58512;SDS011;44302;47.914;10.642;2022-12-07T16:52:19;27.17;;;18.03;;
58512;SDS011;44302;47.914;10.642;2022-12-07T16:54:45;23.97;;;16.57;;
58512;SDS011;44302;47.914;10.642;2022-12-07T16:57:11;29.47;;;19.27;;
58512;SDS011;44302;47.914;10.642;2022-12-07T16:59:36;27.30;;;17.53;;
58512;SDS011;44302;47.914;10.642;2022-12-07T17:02:02;31.77;;;18.90;;
58512;SDS011;44302;47.914;10.642;2022-12-07T17:04:28;27.73;;;17.97;;
58512;SDS011;44302;47.914;10.642;2022-12-07T17:06:54;25.27;;;16.67;;
58512;SDS011;44302;47.914;10.642;2022-12-07T17:09:20;32.70;;;19.50;;
58512;SDS011;44302;47.914;10.642;2022-12-07T17:11:45;26.47;;;17.70;;
58512;SDS011;44302;47.914;10.642;2022-12-07T17:14:11;27.70;;;18.70;;
58512;SDS011;44302;47.914;10.642;2022-12-07T17:16:56;29.07;;;18.83;;
58512;SDS011;44302;47.914;10.642;2022-12-07T17:19:21;28.03;;;18.47;;
58512;SDS011;44302;47.914;10.642;2022-12-07T17:21:47;33.40;;;18.50;;
58512;SDS011;44302;47.914;10.642;2022-12-07T17:24:14;26.77;;;18.43;;
58512;SDS011;44302;47.914;10.642;2022-12-07T17:26:41;21.80;;;15.37;;
58512;SDS011;44302;47.914;10.642;2022-12-07T17:29:10;44.97;;;26.10;;
58512;SDS011;44302;47.914;10.642;2022-12-07T17:31:37;62.47;;;34.53;;
58512;SDS011;44302;47.914;10.642;2022-12-07T17:34:03;55.53;;;28.30;;
58512;SDS011;44302;47.914;10.642;2022-12-07T17:36:29;183.03;;;69.57;;
